createdAt,value
2022-10-24T00:02:21.771Z,97251.78
2022-10-24T00:04:48.587Z,97250.25
2022-10-24T00:07:16.636Z,97261.00
2022-10-24T00:09:43.576Z,97262.78
2022-10-24T00:12:10.443Z,97252.81
2022-10-24T00:14:37.769Z,97263.13
2022-10-24T00:17:04.647Z,97268.94
2022-10-24T00:19:31.869Z,97272.88
2022-10-24T00:21:58.538Z,97268.56
2022-10-24T00:24:26.597Z,97274.72
2022-10-24T00:26:53.242Z,97270.09
2022-10-24T00:29:19.877Z,97269.53
2022-10-24T00:31:47.277Z,97267.56
2022-10-24T00:34:14.126Z,97263.59
2022-10-24T00:36:40.880Z,97271.97
2022-10-24T00:39:07.607Z,97270.81
2022-10-24T00:41:38.113Z,97270.91
2022-10-24T00:44:17.485Z,97269.69
2022-10-24T00:46:48.490Z,97270.06
2022-10-24T00:49:18.574Z,97260.94
2022-10-24T00:51:48.811Z,97266.09
2022-10-24T00:54:16.077Z,97260.19
2022-10-24T00:56:51.250Z,97258.91
2022-10-24T00:59:18.471Z,97260.03
2022-10-24T01:01:46.798Z,97251.25
2022-10-24T01:04:14.531Z,97251.25
2022-10-24T01:06:47.371Z,97235.53
2022-10-24T01:09:38.404Z,97252.19
2022-10-24T01:12:21.401Z,97250.78
2022-10-24T01:14:59.553Z,97255.41
2022-10-24T01:17:33.795Z,97253.81
2022-10-24T01:20:38.763Z,97244.81
2022-10-24T01:23:40.113Z,97241.16
2022-10-24T01:26:35.989Z,97235.38
2022-10-24T01:29:11.664Z,97230.63
2022-10-24T01:31:49.521Z,97228.53
2022-10-24T01:34:23.546Z,97222.00
2022-10-24T01:36:56.998Z,97222.16
2022-10-24T01:39:28.750Z,97204.72
2022-10-24T01:41:58.111Z,97205.84
2022-10-24T01:44:30.058Z,97198.00
2022-10-24T01:47:03.083Z,97196.41
2022-10-24T01:49:33.586Z,97201.69
2022-10-24T01:52:03.683Z,97199.63
2022-10-24T01:54:33.243Z,97190.47
2022-10-24T01:56:59.896Z,97198.44
2022-10-24T01:59:53.471Z,97187.66
2022-10-24T02:02:24.159Z,97193.09
2022-10-24T02:04:56.166Z,97191.69
2022-10-24T02:07:24.970Z,97189.75
2022-10-24T02:09:56.206Z,97197.28
2022-10-24T02:12:25.776Z,97197.44
2022-10-24T02:14:59.238Z,97207.53
2022-10-24T02:20:00.412Z,97204.59
2022-10-24T02:22:30.449Z,97200.91
2022-10-24T02:25:02.939Z,97208.00
2022-10-24T02:27:34.661Z,97210.19
2022-10-24T02:30:03.798Z,97213.25
2022-10-24T02:32:36.086Z,97215.34
2022-10-24T02:35:05.257Z,97222.88
2022-10-24T02:37:34.431Z,97229.44
2022-10-24T02:40:03.740Z,97229.44
2022-10-24T02:42:31.888Z,97224.81
2022-10-24T02:45:00.192Z,97204.47
2022-10-24T02:47:28.469Z,97195.03
2022-10-24T02:49:56.513Z,97189.25
2022-10-24T02:52:24.087Z,97192.44
2022-10-24T02:54:50.960Z,97197.28
2022-10-24T02:57:17.977Z,97186.09
2022-10-24T02:59:44.758Z,97188.66
2022-10-24T03:02:11.493Z,97208.16
2022-10-24T03:04:38.275Z,97202.22
2022-10-24T03:07:07.451Z,97202.69
2022-10-24T03:09:34.466Z,97203.59
2022-10-24T03:12:01.553Z,97203.59
2022-10-24T03:14:28.417Z,97206.03
2022-10-24T03:16:55.153Z,97212.06
2022-10-24T03:19:21.856Z,97210.66
2022-10-24T03:21:48.632Z,97207.81
2022-10-24T03:24:22.947Z,97200.31
2022-10-24T03:26:57.996Z,97201.09
2022-10-24T03:29:24.680Z,97211.19
2022-10-24T03:31:51.640Z,97198.69
2022-10-24T03:34:18.301Z,97198.19
2022-10-24T03:36:44.914Z,97196.44
2022-10-24T03:39:11.631Z,97212.16
2022-10-24T03:41:39.713Z,97205.28
2022-10-24T03:44:06.346Z,97207.19
2022-10-24T03:46:32.927Z,97201.75
2022-10-24T03:49:08.473Z,97209.88
2022-10-24T03:51:35.137Z,97210.84
2022-10-24T03:54:01.870Z,97216.91
2022-10-24T03:56:28.567Z,97218.19
2022-10-24T03:58:56.569Z,97212.75
2022-10-24T04:01:24.317Z,97200.44
2022-10-24T04:03:51.077Z,97221.06
2022-10-24T04:06:17.839Z,97224.47
2022-10-24T04:08:44.573Z,97217.56
2022-10-24T04:11:11.665Z,97209.72
2022-10-24T04:13:38.409Z,97212.13
2022-10-24T04:16:07.418Z,97217.84
2022-10-24T04:18:34.437Z,97211.94
2022-10-24T04:21:01.488Z,97207.09
2022-10-24T04:23:28.273Z,97200.19
2022-10-24T04:25:54.906Z,97213.34
2022-10-24T04:31:07.663Z,97214.94
2022-10-24T04:33:36.280Z,97205.16
2022-10-24T04:36:03.495Z,97214.00
2022-10-24T04:38:33.668Z,97203.63
2022-10-24T04:41:01.115Z,97202.00
2022-10-24T04:43:28.463Z,97208.13
2022-10-24T04:45:55.063Z,97218.34
2022-10-24T04:48:23.148Z,97211.19
2022-10-24T04:50:49.922Z,97217.75
2022-10-24T04:53:16.632Z,97216.94
2022-10-24T04:55:43.375Z,97212.31
2022-10-24T04:58:10.062Z,97207.31
2022-10-24T05:00:36.859Z,97213.59
2022-10-24T05:03:03.753Z,97204.16
2022-10-24T05:05:32.075Z,97200.44
2022-10-24T05:07:58.826Z,97205.22
2022-10-24T05:10:25.512Z,97207.59
2022-10-24T05:12:52.457Z,97195.94
2022-10-24T05:15:19.204Z,97199.00
2022-10-24T05:17:45.815Z,97196.56
2022-10-24T05:20:12.593Z,97200.91
2022-10-24T05:22:40.771Z,97203.47
2022-10-24T05:25:08.742Z,97203.03
2022-10-24T05:27:35.637Z,97207.31
2022-10-24T05:30:02.372Z,97199.63
2022-10-24T05:32:29.185Z,97194.13
2022-10-24T05:34:55.954Z,97207.25
2022-10-24T05:37:22.661Z,97207.88
2022-10-24T05:39:50.780Z,97200.19
2022-10-24T05:42:17.487Z,97198.72
2022-10-24T05:44:44.173Z,97207.53
2022-10-24T05:47:10.894Z,97213.25
2022-10-24T05:49:37.513Z,97217.63
2022-10-24T05:52:04.567Z,97212.72
2022-10-24T05:54:42.471Z,97219.16
2022-10-24T05:57:19.545Z,97225.25
2022-10-24T05:59:46.418Z,97229.16
2022-10-24T06:02:18.293Z,97223.88
2022-10-24T06:04:45.033Z,97229.94
2022-10-24T06:07:12.538Z,97230.47
2022-10-24T06:09:39.759Z,97228.88
2022-10-24T06:12:08.391Z,97231.13
2022-10-24T06:14:36.794Z,97234.19
2022-10-24T06:17:05.792Z,97234.41
2022-10-24T06:19:33.144Z,97240.19
2022-10-24T06:21:59.761Z,97240.00
2022-10-24T06:24:26.641Z,97249.31
2022-10-24T06:26:53.495Z,97247.59
2022-10-24T06:29:20.410Z,97242.16
2022-10-24T06:31:48.491Z,97240.19
2022-10-24T06:34:15.692Z,97249.44
2022-10-24T06:36:42.687Z,97250.69
2022-10-24T06:39:09.394Z,97257.72
2022-10-24T06:41:36.064Z,97251.41
2022-10-24T06:44:04.295Z,97245.16
2022-10-24T06:46:31.872Z,97247.94
2022-10-24T06:49:00.085Z,97234.19
2022-10-24T06:51:27.947Z,97254.34
2022-10-24T06:53:55.119Z,97245.84
2022-10-24T06:56:21.812Z,97253.88
2022-10-24T06:58:48.651Z,97252.56
2022-10-24T07:01:17.577Z,97249.34
2022-10-24T07:03:45.587Z,97255.56
2022-10-24T07:06:17.656Z,97256.81
2022-10-24T07:08:45.649Z,97259.41
2022-10-24T07:11:13.159Z,97260.53
2022-10-24T07:13:40.322Z,97259.94
2022-10-24T07:16:07.914Z,97259.25
2022-10-24T07:18:34.943Z,97256.53
2022-10-24T07:21:03.457Z,97259.34
2022-10-24T07:23:31.846Z,97252.97
2022-10-24T07:26:02.429Z,97257.13
2022-10-24T07:28:29.227Z,97250.88
2022-10-24T07:30:55.915Z,97246.09
2022-10-24T07:33:22.658Z,97260.38
2022-10-24T07:35:49.449Z,97248.50
2022-10-24T07:38:18.601Z,97257.19
2022-10-24T07:40:47.519Z,97249.50
2022-10-24T07:43:15.317Z,97250.63
2022-10-24T07:45:46.482Z,97256.97
2022-10-24T07:48:15.639Z,97266.75
2022-10-24T07:50:44.692Z,97256.00
2022-10-24T07:53:11.887Z,97258.22
2022-10-24T07:55:39.396Z,97270.25
2022-10-24T07:58:09.054Z,97270.25
2022-10-24T08:00:39.033Z,97272.63
2022-10-24T08:03:07.940Z,97265.72
2022-10-24T08:05:34.779Z,97264.41
2022-10-24T08:08:24.685Z,97257.94
2022-10-24T08:10:49.159Z,97259.66
2022-10-24T08:13:17.530Z,97275.38
2022-10-24T08:15:44.761Z,97276.28
2022-10-24T08:18:12.344Z,97276.78
2022-10-24T08:20:39.588Z,97270.84
2022-10-24T08:23:06.538Z,97273.56
2022-10-24T08:25:34.291Z,97267.59
2022-10-24T08:28:03.902Z,97277.09
2022-10-24T08:30:34.824Z,97277.75
2022-10-24T08:33:01.748Z,97280.69
2022-10-24T08:35:28.718Z,97280.00
2022-10-24T08:37:55.718Z,97279.22
2022-10-24T08:40:22.850Z,97270.44
2022-10-24T08:42:50.323Z,97272.72
2022-10-24T08:45:25.626Z,97272.59
2022-10-24T08:48:03.015Z,97260.59
2022-10-24T08:50:33.898Z,97258.97
2022-10-24T08:53:04.430Z,97261.69
2022-10-24T08:55:48.929Z,97260.22
2022-10-24T08:58:20.430Z,97250.78
2022-10-24T09:00:51.221Z,97251.22
2022-10-24T09:03:43.943Z,97258.88
2022-10-24T09:06:22.188Z,97250.63
2022-10-24T09:08:53.221Z,97253.28
2022-10-24T09:11:26.216Z,97255.00
2022-10-24T09:13:54.191Z,97253.63
2022-10-24T09:16:23.939Z,97264.03
2022-10-24T09:18:55.908Z,97271.16
2022-10-24T09:21:24.855Z,97259.06
2022-10-24T09:23:52.535Z,97252.03
2022-10-24T09:26:26.516Z,97242.34
2022-10-24T09:28:55.189Z,97247.34
2022-10-24T09:31:27.274Z,97257.72
2022-10-24T09:33:56.778Z,97250.09
2022-10-24T09:36:26.655Z,97251.09
2022-10-24T09:38:53.363Z,97245.06
2022-10-24T09:41:24.420Z,97248.25
2022-10-24T09:43:54.999Z,97267.81
2022-10-24T09:46:24.111Z,97266.25
2022-10-24T09:48:54.680Z,97260.78
2022-10-24T09:51:26.638Z,97270.00
2022-10-24T09:54:23.900Z,97271.19
2022-10-24T09:56:55.983Z,97276.41
2022-10-24T09:59:34.870Z,97278.25
2022-10-24T10:02:24.728Z,97274.63
2022-10-24T10:05:17.719Z,97292.84
2022-10-24T10:07:48.875Z,97292.09
2022-10-24T10:10:29.015Z,97279.69
2022-10-24T10:12:59.273Z,97281.72
2022-10-24T10:15:29.956Z,97292.22
2022-10-24T10:18:01.422Z,97289.72
2022-10-24T10:20:33.049Z,97301.06
2022-10-24T10:26:14.635Z,97309.06
2022-10-24T10:28:53.173Z,97300.66
2022-10-24T10:31:23.504Z,97311.91
2022-10-24T10:34:07.766Z,97307.47
2022-10-24T10:36:41.651Z,97300.97
2022-10-24T10:39:27.127Z,97305.69
2022-10-24T10:42:01.580Z,97303.00
2022-10-24T10:44:43.806Z,97319.50
2022-10-24T10:47:17.893Z,97318.72
2022-10-24T10:49:48.439Z,97315.13
2022-10-24T10:52:23.273Z,97324.59
2022-10-24T10:55:08.412Z,97329.22
2022-10-24T10:57:44.921Z,97330.69
2022-10-24T11:00:25.813Z,97336.25
2022-10-24T11:03:17.053Z,97329.44
2022-10-24T11:05:55.574Z,97329.06
2022-10-24T11:08:39.735Z,62402.38
2022-10-24T11:11:12.854Z,62402.38
2022-10-24T11:13:45.936Z,62402.38
2022-10-24T11:16:17.905Z,62402.38
2022-10-24T11:18:48.745Z,62402.38
2022-10-24T11:21:17.869Z,62402.38
2022-10-24T11:23:51.072Z,62402.38
2022-10-24T11:26:22.798Z,62402.38
2022-10-24T11:28:58.331Z,62402.38
2022-10-24T11:31:29.071Z,62402.38
2022-10-24T11:34:00.262Z,62402.38
2022-10-24T11:36:35.109Z,62402.38
2022-10-24T11:39:07.193Z,62402.38
2022-10-24T11:41:45.298Z,62402.38
2022-10-24T11:44:23.940Z,62402.38
2022-10-24T11:47:05.534Z,62402.38
2022-10-24T11:49:37.577Z,62402.38
2022-10-24T11:52:14.664Z,62402.38
2022-10-24T11:54:47.576Z,62402.38
2022-10-24T11:57:19.316Z,62402.38
2022-10-24T11:59:51.040Z,62402.38
2022-10-24T12:02:53.904Z,62402.38
2022-10-24T12:05:43.034Z,62402.38
2022-10-24T12:08:35.181Z,62402.38
2022-10-24T12:11:29.230Z,62402.38
2022-10-24T12:14:26.361Z,62402.38
2022-10-24T12:17:15.977Z,62402.38
2022-10-24T12:19:44.309Z,62402.38
2022-10-24T12:22:18.226Z,62402.38
2022-10-24T12:24:45.657Z,62402.38
2022-10-24T12:27:31.724Z,62402.38
2022-10-24T12:30:05.380Z,62402.38
2022-10-24T12:32:37.928Z,62402.38
2022-10-24T12:35:44.512Z,62402.38
2022-10-24T12:38:17.139Z,62402.38
2022-10-24T12:40:52.018Z,62402.38
2022-10-24T12:43:33.033Z,62402.38
2022-10-24T12:46:01.610Z,62402.38
2022-10-24T12:48:31.404Z,62402.38
2022-10-24T12:51:02.984Z,62402.38
2022-10-24T12:53:33.522Z,62402.38
2022-10-24T12:56:16.864Z,62402.38
2022-10-24T12:58:56.115Z,62402.38
2022-10-24T13:01:27.536Z,62402.38
2022-10-24T13:04:23.388Z,62402.38
2022-10-24T13:07:07.691Z,62402.38
2022-10-24T13:09:44.223Z,62402.38
2022-10-24T13:12:29.150Z,62402.38
2022-10-24T13:15:14.037Z,62402.38
2022-10-24T13:17:47.824Z,62402.38
2022-10-24T13:20:18.420Z,62402.38
2022-10-24T13:22:48.831Z,62402.38
2022-10-24T13:25:33.857Z,62402.38
2022-10-24T13:28:39.404Z,62402.38
2022-10-24T13:31:57.727Z,62402.38
2022-10-24T13:34:30.732Z,62402.38
2022-10-24T13:37:01.757Z,62402.38
2022-10-24T13:39:37.443Z,62402.38
2022-10-24T13:42:18.797Z,62402.38
2022-10-24T13:44:49.204Z,62402.38
2022-10-24T13:47:21.245Z,62402.38
2022-10-24T13:49:53.623Z,62402.38
2022-10-24T13:52:26.683Z,62402.38
2022-10-24T13:55:02.021Z,62402.38
2022-10-24T13:57:33.790Z,62402.38
2022-10-24T14:00:02.418Z,62402.38
2022-10-24T14:02:34.004Z,62402.38
2022-10-24T14:05:02.148Z,62402.38
2022-10-24T14:07:31.727Z,62402.38
2022-10-24T14:10:02.871Z,62402.38
2022-10-24T14:12:32.678Z,62402.38
2022-10-24T14:15:02.599Z,62402.38
2022-10-24T14:17:31.437Z,62402.38
2022-10-24T14:20:01.756Z,62402.38
2022-10-24T14:22:34.987Z,62402.38
2022-10-24T14:25:04.372Z,62402.38
2022-10-24T14:27:30.947Z,62402.38
2022-10-24T14:30:01.382Z,62402.38
2022-10-24T14:32:31.327Z,62402.38
2022-10-24T14:37:33.507Z,62402.38
2022-10-24T14:40:01.051Z,62402.38
2022-10-24T14:42:30.055Z,62402.38
2022-10-24T14:44:58.476Z,62402.38
2022-10-24T14:47:30.061Z,62402.38
2022-10-24T14:49:58.455Z,62402.38
2022-10-24T14:52:28.144Z,62402.38
2022-10-24T14:55:00.527Z,62402.38
2022-10-24T14:57:30.466Z,62402.38
2022-10-24T14:59:59.664Z,62402.38
2022-10-24T15:02:29.859Z,62402.38
2022-10-24T15:05:38.325Z,62402.38
2022-10-24T15:08:24.703Z,62402.38
2022-10-24T15:11:04.861Z,62402.38
2022-10-24T15:13:48.013Z,62402.38
2022-10-24T15:16:26.687Z,62402.38
2022-10-24T15:18:55.725Z,62402.38
2022-10-24T15:21:24.973Z,62402.38
2022-10-24T15:23:55.599Z,62402.38
2022-10-24T15:26:26.988Z,62402.38
2022-10-24T15:29:07.153Z,62402.38
2022-10-24T15:31:35.496Z,62402.38
2022-10-24T15:34:02.656Z,62402.38
2022-10-24T15:36:33.008Z,62402.38
2022-10-24T15:39:01.403Z,62402.38
2022-10-24T15:41:30.589Z,62402.38
2022-10-24T15:44:01.344Z,62402.38
2022-10-24T15:46:31.495Z,62402.38
2022-10-24T15:48:59.865Z,62402.38
2022-10-24T15:51:28.427Z,62402.38
2022-10-24T15:53:56.950Z,62402.38
2022-10-24T15:56:24.686Z,62402.38
2022-10-24T15:58:51.454Z,62402.38
2022-10-24T16:01:25.940Z,62402.38
2022-10-24T16:03:53.507Z,62402.38
2022-10-24T16:06:22.078Z,62402.38
2022-10-24T16:08:49.879Z,62402.38
2022-10-24T16:11:17.380Z,62402.38
2022-10-24T16:13:44.221Z,62402.38
2022-10-24T16:16:11.099Z,62402.38
2022-10-24T16:18:39.433Z,62402.38
2022-10-24T16:21:06.679Z,62402.38
2022-10-24T16:23:34.054Z,62402.38
2022-10-24T16:26:00.781Z,62402.38
2022-10-24T16:28:28.874Z,62402.38
2022-10-24T16:30:55.812Z,62402.38
2022-10-24T16:33:22.549Z,62402.38
2022-10-24T16:35:51.766Z,62402.38
2022-10-24T16:38:18.813Z,62402.38
2022-10-24T16:40:48.486Z,62402.38
2022-10-24T16:43:17.535Z,62402.38
2022-10-24T16:45:46.975Z,62402.38
2022-10-24T16:48:14.306Z,62402.38
2022-10-24T16:50:46.391Z,62402.38
2022-10-24T16:53:18.163Z,62402.38
2022-10-24T16:55:48.063Z,62402.38
2022-10-24T16:58:14.997Z,62402.38
2022-10-24T17:00:41.835Z,62402.38
2022-10-24T17:03:08.576Z,62402.38
2022-10-24T17:05:35.341Z,62402.38
2022-10-24T17:08:02.291Z,62402.38
2022-10-24T17:10:30.570Z,62402.38
2022-10-24T17:12:57.584Z,62402.38
2022-10-24T17:15:24.625Z,62402.38
2022-10-24T17:17:52.217Z,62402.38
2022-10-24T17:20:19.267Z,62402.38
2022-10-24T17:22:46.742Z,62402.38
2022-10-24T17:25:19.407Z,62402.38
2022-10-24T17:27:49.316Z,62402.38
2022-10-24T17:30:18.464Z,62402.38
2022-10-24T17:32:45.698Z,62402.38
2022-10-24T17:35:15.932Z,62402.38
2022-10-24T17:37:52.647Z,62402.38
2022-10-24T17:40:22.369Z,62402.38
2022-10-24T17:42:51.625Z,62402.38
2022-10-24T17:45:21.482Z,62402.38
2022-10-24T17:47:49.420Z,62402.38
2022-10-24T17:50:17.744Z,62402.38
2022-10-24T17:52:51.004Z,62402.38
2022-10-24T17:55:44.476Z,62402.38
2022-10-24T17:58:10.386Z,62402.38
2022-10-24T18:00:37.453Z,62402.38
2022-10-24T18:03:05.292Z,62402.38
2022-10-24T18:05:38.077Z,62402.38
2022-10-24T18:08:06.919Z,62402.38
2022-10-24T18:10:36.270Z,62402.38
2022-10-24T18:13:03.145Z,62402.38
2022-10-24T18:15:32.764Z,62402.38
2022-10-24T18:18:01.166Z,62402.38
2022-10-24T18:20:28.536Z,62402.38
2022-10-24T18:22:55.345Z,62402.38
2022-10-24T18:25:23.179Z,62402.38
2022-10-24T18:27:51.650Z,62402.38
2022-10-24T18:30:19.689Z,62402.38
2022-10-24T18:32:48.398Z,62402.38
2022-10-24T18:35:15.832Z,62402.38
2022-10-24T18:37:43.310Z,62402.38
2022-10-24T18:40:11.699Z,62402.38
2022-10-24T18:42:45.622Z,62402.38
2022-10-24T18:45:18.484Z,62402.38
2022-10-24T18:47:47.571Z,62402.38
2022-10-24T18:50:16.261Z,62402.38
2022-10-24T18:52:50.610Z,62402.38
2022-10-24T18:55:19.839Z,62402.38
2022-10-24T18:57:48.572Z,62402.38
2022-10-24T19:00:18.328Z,62402.38
2022-10-24T19:02:54.879Z,62402.38
2022-10-24T19:05:24.931Z,62402.38
2022-10-24T19:07:52.519Z,62402.38
2022-10-24T19:10:22.904Z,62402.38
2022-10-24T19:12:50.301Z,62402.38
2022-10-24T19:15:18.010Z,62402.38
2022-10-24T19:17:48.045Z,62402.38
2022-10-24T19:20:17.918Z,62402.38
2022-10-24T19:22:45.332Z,62402.38
2022-10-24T19:25:13.317Z,62402.38
2022-10-24T19:27:40.837Z,62402.38
2022-10-24T19:30:09.933Z,62402.38
2022-10-24T19:32:36.869Z,62402.38
2022-10-24T19:35:05.923Z,62402.38
2022-10-24T19:37:32.638Z,62402.38
2022-10-24T19:39:59.381Z,62402.38
2022-10-24T19:42:26.319Z,62402.38
2022-10-24T19:44:56.362Z,62402.38
2022-10-24T19:47:24.576Z,62402.38
2022-10-24T19:49:51.427Z,62402.38
2022-10-24T19:52:19.923Z,62402.38
2022-10-24T19:54:46.641Z,62402.38
2022-10-24T19:57:13.415Z,62402.38
2022-10-24T19:59:40.081Z,62402.38
2022-10-24T20:02:06.889Z,62402.38
2022-10-24T20:04:33.665Z,62402.38
2022-10-24T20:07:00.420Z,62402.38
2022-10-24T20:09:28.978Z,62402.38
2022-10-24T20:11:55.815Z,62402.38
2022-10-24T20:14:24.552Z,62402.38
2022-10-24T20:16:51.429Z,62402.38
2022-10-24T20:19:18.584Z,62402.38
2022-10-24T20:21:45.728Z,62402.38
2022-10-24T20:24:18.518Z,62402.38
2022-10-24T20:26:46.566Z,62402.38
2022-10-24T20:29:15.857Z,62402.38
2022-10-24T20:31:45.547Z,62402.38
2022-10-24T20:34:13.189Z,62402.38
2022-10-24T20:36:43.036Z,62402.38
2022-10-24T20:39:10.430Z,62402.38
2022-10-24T20:41:37.957Z,62402.38
2022-10-24T20:44:07.037Z,62402.38
2022-10-24T20:46:34.060Z,62402.38
2022-10-24T20:49:01.207Z,62402.38
2022-10-24T20:51:28.189Z,62402.38
2022-10-24T20:53:55.047Z,62402.38
2022-10-24T20:56:26.223Z,62402.38
2022-10-24T20:58:55.165Z,62402.38
2022-10-24T21:01:24.746Z,62402.38
2022-10-24T21:03:52.404Z,62402.38
2022-10-24T21:06:21.257Z,62402.38
2022-10-24T21:08:48.977Z,62402.38
2022-10-24T21:11:17.679Z,62402.38
2022-10-24T21:13:45.734Z,62402.38
2022-10-24T21:16:13.975Z,62402.38
2022-10-24T21:18:42.755Z,62402.38
2022-10-24T21:21:11.640Z,62402.38
2022-10-24T21:23:39.115Z,62402.38
2022-10-24T21:26:08.803Z,62402.38
2022-10-24T21:28:37.016Z,62402.38
2022-10-24T21:31:04.895Z,62402.38
2022-10-24T21:33:32.698Z,62402.38
2022-10-24T21:36:04.732Z,62402.38
2022-10-24T21:38:31.678Z,62402.38
2022-10-24T21:41:02.116Z,62402.38
2022-10-24T21:43:31.572Z,62402.38
2022-10-24T21:46:02.540Z,62402.38
2022-10-24T21:48:31.073Z,62402.38
2022-10-24T21:51:04.238Z,62402.38
2022-10-24T21:53:31.170Z,62402.38
2022-10-24T21:56:04.775Z,62402.38
2022-10-24T21:58:31.452Z,62402.38
2022-10-24T22:00:58.206Z,62402.38
2022-10-24T22:03:24.982Z,62402.38
2022-10-24T22:05:52.604Z,62402.38
2022-10-24T22:08:20.959Z,62402.38
2022-10-24T22:10:55.426Z,62402.38
2022-10-24T22:16:07.036Z,62402.38
2022-10-24T22:18:34.396Z,62402.38
2022-10-24T22:21:02.592Z,62402.38
2022-10-24T22:23:31.084Z,62402.38
2022-10-24T22:25:58.168Z,62402.38
2022-10-24T22:28:25.492Z,62402.38
2022-10-24T22:30:53.240Z,62402.38
2022-10-24T22:33:27.548Z,62402.38
2022-10-24T22:35:58.524Z,62402.38
2022-10-24T22:38:26.090Z,62402.38
2022-10-24T22:40:54.673Z,62402.38
2022-10-24T22:43:21.783Z,62402.38
2022-10-24T22:45:57.956Z,62402.38
2022-10-24T22:48:27.272Z,62402.38
2022-10-24T22:50:55.238Z,62402.38
2022-10-24T22:53:24.948Z,62402.38
2022-10-24T22:56:04.535Z,62402.38
2022-10-24T22:58:31.856Z,62402.38
2022-10-24T23:01:02.854Z,62402.38
2022-10-24T23:03:37.507Z,62402.38
2022-10-24T23:06:13.650Z,62402.38
2022-10-24T23:08:41.440Z,62402.38
2022-10-24T23:11:12.422Z,62402.38
2022-10-24T23:13:40.061Z,62402.38
2022-10-24T23:16:19.955Z,62402.38
2022-10-24T23:18:47.180Z,62402.38
2022-10-24T23:21:22.518Z,62402.38
2022-10-24T23:23:49.615Z,62402.38
2022-10-24T23:26:26.094Z,62402.38
2022-10-24T23:29:00.780Z,62402.38
2022-10-24T23:31:28.128Z,62402.38
2022-10-24T23:33:55.401Z,62402.38
2022-10-24T23:36:25.279Z,62402.38
2022-10-24T23:38:55.184Z,62402.38
2022-10-24T23:41:23.839Z,62402.38
2022-10-24T23:43:51.084Z,62402.38
2022-10-24T23:46:25.602Z,62402.38
2022-10-24T23:49:04.247Z,62402.38
2022-10-24T23:51:37.404Z,62402.38
2022-10-24T23:54:08.989Z,62402.38
2022-10-24T23:56:38.461Z,62402.38
2022-10-24T23:59:05.513Z,62402.38
